Time;durP1;ratioP1;P1;durP2;ratioP2;P2;SDS_P1;SDS_P2;PMS_P1;PMS_P2;Temp;Humidity;BMP_temperature;BMP_pressure;BME280_temperature;BME280_humidity;BME280_pressure;Samples;Min_cycle;Max_cycle;Signal;HPM_P1;HPM_P2
2024/04/01 00:00:35;;;;;;;1.50;0.87;;;24.80;59.20;;;;;;5013825;28;20475;-85
2024/04/01 00:03:01;;;;;;;1.70;1.00;;;24.80;59.30;;;;;;5014029;28;20461;-85
2024/04/01 00:05:27;;;;;;;1.60;0.90;;;24.80;59.20;;;;;;5013747;28;20534;-85
2024/04/01 00:07:55;;;;;;;1.60;0.80;;;24.80;59.30;;;;;;5013842;28;20204;-86
2024/04/01 00:10:22;;;;;;;2.07;1.10;;;24.80;59.30;;;;;;5013810;28;20443;-85
2024/04/01 00:12:48;;;;;;;2.53;1.10;;;24.80;59.30;;;;;;5013515;28;20493;-84
2024/04/01 00:15:18;;;;;;;1.70;1.10;;;24.70;59.20;;;;;;5013746;28;20447;-85
2024/04/01 00:17:44;;;;;;;2.10;0.93;;;24.70;59.10;;;;;;5013733;28;20530;-85
2024/04/01 00:20:11;;;;;;;1.90;0.97;;;24.70;59.20;;;;;;5013728;28;20530;-86
2024/04/01 00:22:37;;;;;;;1.70;0.80;;;24.70;59.20;;;;;;5013617;28;20435;-85
2024/04/01 00:25:04;;;;;;;1.50;0.87;;;24.70;59.20;;;;;;5013663;28;20792;-85
2024/04/01 00:27:30;;;;;;;1.83;1.00;;;24.70;59.30;;;;;;5013522;28;20200;-85
2024/04/01 00:29:56;;;;;;;1.50;0.80;;;24.70;59.30;;;;;;5013673;28;20438;-85
2024/04/01 00:32:24;;;;;;;1.60;0.90;;;24.70;59.30;;;;;;5013501;28;20220;-85
2024/04/01 00:34:51;;;;;;;2.10;0.93;;;24.60;59.20;;;;;;5013374;28;20927;-85
2024/04/01 00:37:17;;;;;;;1.80;1.07;;;24.60;59.20;;;;;;5013331;28;20506;-85
2024/04/01 00:39:43;;;;;;;3.03;1.10;;;24.60;59.20;;;;;;5013409;28;20439;-85
2024/04/01 00:42:09;;;;;;;1.90;1.20;;;24.60;59.30;;;;;;5013496;28;20203;-85
2024/04/01 00:44:36;;;;;;;1.60;0.80;;;24.70;59.30;;;;;;5013569;28;20439;-85
2024/04/01 00:47:02;;;;;;;1.60;0.77;;;24.60;59.20;;;;;;5013460;28;20577;-85
2024/04/01 00:49:30;;;;;;;3.77;0.90;;;24.60;59.30;;;;;;5013457;28;20447;-84
2024/04/01 00:51:56;;;;;;;1.50;0.90;;;24.60;59.30;;;;;;5013426;28;20448;-85
2024/04/01 00:54:23;;;;;;;1.90;0.80;;;24.60;59.30;;;;;;5013313;28;20566;-85
2024/04/01 00:56:49;;;;;;;1.90;0.97;;;24.50;59.10;;;;;;5013189;28;20238;-84
2024/04/01 00:59:17;;;;;;;2.43;1.07;;;24.50;59.10;;;;;;5013420;28;20451;-85
2024/04/01 01:01:46;;;;;;;1.60;0.93;;;24.50;59.20;;;;;;5013183;28;20464;-84
2024/04/01 01:04:14;;;;;;;1.80;0.90;;;24.50;59.20;;;;;;5013158;28;20443;-84
2024/04/01 01:06:42;;;;;;;1.77;1.17;;;24.50;59.20;;;;;;5013656;28;20439;-85
2024/04/01 01:09:11;;;;;;;1.53;0.87;;;24.50;59.40;;;;;;5017271;28;20444;-85
2024/04/01 01:11:38;;;;;;;1.60;0.90;;;24.50;59.30;;;;;;5016702;28;20443;-85
2024/04/01 01:14:05;;;;;;;1.83;0.80;;;24.50;59.20;;;;;;5017123;28;20770;-84
2024/04/01 01:16:31;;;;;;;1.80;1.03;;;24.50;59.30;;;;;;5016786;28;20585;-85
2024/04/01 01:18:57;;;;;;;1.57;0.90;;;24.40;59.30;;;;;;5017242;28;20441;-84
2024/04/01 01:21:23;;;;;;;1.93;1.10;;;24.40;59.30;;;;;;5016830;28;20439;-84
2024/04/01 01:23:51;;;;;;;1.67;0.93;;;24.40;59.30;;;;;;5016637;28;20458;-84
2024/04/01 01:26:18;;;;;;;1.60;0.80;;;24.40;59.30;;;;;;5016756;28;20196;-85
2024/04/01 01:28:45;;;;;;;1.70;0.90;;;24.40;59.20;;;;;;5016665;28;20447;-85
2024/04/01 01:31:12;;;;;;;1.60;0.90;;;24.40;59.30;;;;;;5019273;28;20462;-84
2024/04/01 01:33:40;;;;;;;1.50;0.93;;;24.40;59.20;;;;;;5018865;28;20485;-84
2024/04/01 01:36:06;;;;;;;2.23;0.90;;;24.40;59.20;;;;;;5024079;28;20490;-84
2024/04/01 01:38:33;;;;;;;1.90;0.90;;;24.40;59.30;;;;;;5016908;28;20522;-84
2024/04/01 01:41:00;;;;;;;1.60;1.00;;;24.40;59.30;;;;;;5016689;28;20446;-84
2024/04/01 01:43:27;;;;;;;1.60;0.83;;;24.40;59.30;;;;;;5016528;28;20950;-84
2024/04/01 01:45:52;;;;;;;1.60;0.90;;;24.30;59.20;;;;;;5016485;28;20446;-84
2024/04/01 01:48:19;;;;;;;1.63;0.90;;;24.30;59.30;;;;;;5016753;28;20443;-83
2024/04/01 01:50:45;;;;;;;2.10;1.00;;;24.30;59.30;;;;;;5016320;28;20202;-84
2024/04/01 01:53:12;;;;;;;1.60;0.83;;;24.30;59.30;;;;;;5016341;28;20439;-84
2024/04/01 01:55:37;;;;;;;1.80;0.93;;;24.30;59.30;;;;;;5016195;28;20192;-84
2024/04/01 01:58:06;;;;;;;3.40;1.00;;;24.30;59.30;;;;;;5015925;28;20817;-83
2024/04/01 02:00:31;;;;;;;1.67;0.87;;;24.30;59.30;;;;;;5015846;28;20686;-83
2024/04/01 02:02:58;;;;;;;1.60;0.90;;;24.30;59.30;;;;;;5014982;28;20443;-84
2024/04/01 02:05:24;;;;;;;1.40;0.80;;;24.20;59.10;;;;;;5015310;28;20192;-84
2024/04/01 02:07:51;;;;;;;1.67;0.87;;;24.20;59.20;;;;;;5015115;28;20435;-84
2024/04/01 02:10:21;;;;;;;1.97;1.10;;;24.20;59.20;;;;;;5015321;28;20204;-84
2024/04/01 02:12:49;;;;;;;1.70;0.90;;;24.20;59.30;;;;;;5014968;28;20888;-82
2024/04/01 02:15:19;;;;;;;1.97;0.70;;;24.20;59.20;;;;;;5015494;28;20447;-84
2024/04/01 02:17:46;;;;;;;1.80;1.00;;;24.20;59.30;;;;;;5015041;28;20483;-84
2024/04/01 02:20:15;;;;;;;1.80;1.00;;;24.20;59.30;;;;;;5015090;28;20435;-84
2024/04/01 02:22:43;;;;;;;1.50;0.80;;;24.20;59.30;;;;;;5015996;28;20450;-84
2024/04/01 02:25:09;;;;;;;1.43;0.80;;;24.20;59.20;;;;;;5014944;28;20498;-84
2024/04/01 02:27:36;;;;;;;1.63;0.90;;;24.20;59.30;;;;;;5015674;28;21025;-83
2024/04/01 02:30:02;;;;;;;1.47;0.80;;;24.20;59.30;;;;;;5015627;28;20200;-84
2024/04/01 02:32:30;;;;;;;1.50;0.70;;;24.20;59.20;;;;;;5015594;28;20463;-83
2024/04/01 02:34:55;;;;;;;1.60;0.90;;;24.20;59.20;;;;;;5015743;28;20923;-83
2024/04/01 02:37:22;;;;;;;1.60;0.80;;;24.20;59.10;;;;;;5015684;28;20493;-84
2024/04/01 02:39:48;;;;;;;1.60;0.80;;;24.30;59.20;;;;;;5015666;28;20200;-84
2024/04/01 02:42:14;;;;;;;1.40;0.73;;;24.30;59.20;;;;;;5015392;28;20447;-84
2024/04/01 02:44:40;;;;;;;1.50;0.80;;;24.30;59.10;;;;;;5015751;28;20200;-83
2024/04/01 02:47:07;;;;;;;1.53;1.00;;;24.30;59.00;;;;;;5015684;28;20463;-84
2024/04/01 02:49:35;;;;;;;1.60;0.80;;;24.40;59.10;;;;;;5016996;28;20625;-83
2024/04/01 02:52:02;;;;;;;1.70;0.80;;;24.40;59.00;;;;;;5025733;28;20442;-85
2024/04/01 02:54:28;;;;;;;1.90;1.10;;;24.40;59.00;;;;;;5040029;28;20443;-85
2024/04/01 02:56:56;;;;;;;1.40;0.80;;;24.40;59.60;;;;;;5033415;28;21074;-84
2024/04/01 02:59:22;;;;;;;1.40;0.70;;;24.40;59.00;;;;;;5014891;28;20953;-84
2024/04/01 03:01:48;;;;;;;1.50;0.80;;;24.40;59.00;;;;;;5014841;28;20463;-84
2024/04/01 03:04:16;;;;;;;1.50;0.90;;;24.40;58.90;;;;;;5015574;28;20192;-84
2024/04/01 03:06:44;;;;;;;1.50;0.80;;;24.40;58.90;;;;;;5015782;28;20779;-84
2024/04/01 03:09:10;;;;;;;1.33;0.80;;;24.40;59.00;;;;;;5016291;28;20443;-84
2024/04/01 03:11:37;;;;;;;1.50;0.80;;;24.40;59.00;;;;;;5015643;28;20475;-85
2024/04/01 03:14:03;;;;;;;1.60;0.70;;;24.40;58.90;;;;;;5016386;28;20258;-84
2024/04/01 03:16:29;;;;;;;1.40;0.80;;;24.40;58.80;;;;;;5015977;28;20481;-84
2024/04/01 03:18:55;;;;;;;1.40;0.70;;;24.40;58.90;;;;;;5014645;28;20946;-84
2024/04/01 03:21:22;;;;;;;1.57;0.80;;;24.40;58.80;;;;;;5014545;28;20439;-85
2024/04/01 03:23:51;;;;;;;4.03;0.90;;;24.40;59.00;;;;;;5014526;28;20200;-84
2024/04/01 03:26:18;;;;;;;4.03;0.80;;;24.40;58.80;;;;;;5014510;28;20857;-84
2024/04/01 03:28:44;;;;;;;1.40;0.67;;;24.40;59.50;;;;;;5014626;28;20435;-84
2024/04/01 03:31:12;;;;;;;1.50;0.90;;;24.40;58.80;;;;;;5014175;28;20495;-84
2024/04/01 03:33:38;;;;;;;1.50;0.70;;;24.40;58.90;;;;;;5016468;28;20447;-84
2024/04/01 03:36:06;;;;;;;1.50;0.80;;;24.40;58.80;;;;;;5014155;28;20494;-84
2024/04/01 03:38:32;;;;;;;1.40;0.67;;;24.40;58.80;;;;;;5014552;28;20439;-84
2024/04/01 03:41:00;;;;;;;1.80;1.00;;;24.40;58.70;;;;;;5014646;28;20961;-83
2024/04/01 03:43:27;;;;;;;1.53;0.90;;;24.40;58.70;;;;;;5014386;28;20453;-83
2024/04/01 03:45:59;;;;;;;1.70;0.73;;;24.40;58.70;;;;;;5014252;28;20817;-83
2024/04/01 03:48:28;;;;;;;1.40;0.80;;;24.50;58.70;;;;;;5014271;28;20447;-83
2024/04/01 03:50:54;;;;;;;1.40;0.80;;;24.50;58.60;;;;;;5014260;28;20840;-84
2024/04/01 03:53:21;;;;;;;1.43;0.70;;;24.50;59.30;;;;;;5013888;28;20454;-84
2024/04/01 03:55:47;;;;;;;1.40;0.73;;;24.50;58.70;;;;;;5014138;28;20714;-84
2024/04/01 03:58:15;;;;;;;1.40;0.60;;;24.50;58.70;;;;;;5014718;28;20442;-84
2024/04/01 04:00:42;;;;;;;1.37;0.60;;;24.50;58.70;;;;;;5014412;28;20565;-84
2024/04/01 04:03:08;;;;;;;1.50;0.80;;;24.50;58.70;;;;;;5014324;28;20488;-84
2024/04/01 04:05:36;;;;;;;1.40;0.80;;;24.50;58.70;;;;;;5014508;28;20447;-84
2024/04/01 04:08:02;;;;;;;1.50;0.70;;;24.50;58.70;;;;;;5014189;28;20446;-84
2024/04/01 04:10:29;;;;;;;1.40;0.70;;;24.50;58.80;;;;;;5014317;28;20447;-84
2024/04/01 04:12:55;;;;;;;1.40;0.70;;;24.50;58.70;;;;;;5014303;28;20471;-84
2024/04/01 04:15:23;;;;;;;1.50;0.80;;;24.50;58.70;;;;;;5014051;28;20875;-84
2024/04/01 04:17:49;;;;;;;1.50;0.80;;;24.50;58.70;;;;;;5013906;28;20687;-83
2024/04/01 04:20:16;;;;;;;1.60;0.70;;;24.50;58.70;;;;;;5014273;28;20439;-84
2024/04/01 04:22:44;;;;;;;1.40;0.60;;;24.50;58.60;;;;;;5014207;28;20200;-85
2024/04/01 04:25:12;;;;;;;1.63;0.80;;;24.50;58.70;;;;;;5014211;28;20439;-84
2024/04/01 04:27:37;;;;;;;1.90;0.90;;;24.50;58.60;;;;;;5014091;28;20986;-84
2024/04/01 04:30:05;;;;;;;1.90;0.80;;;24.60;58.70;;;;;;5014103;28;20543;-83
2024/04/01 04:32:33;;;;;;;1.50;0.80;;;24.60;58.60;;;;;;5014159;28;20247;-84
2024/04/01 04:34:59;;;;;;;1.50;0.80;;;24.60;58.60;;;;;;5013599;28;20960;-84
2024/04/01 04:37:26;;;;;;;1.40;0.63;;;24.60;58.60;;;;;;5013762;28;20501;-84
2024/04/01 04:39:53;;;;;;;1.50;0.93;;;24.60;58.60;;;;;;5014143;28;20802;-83
2024/04/01 04:42:20;;;;;;;1.60;0.80;;;24.60;58.60;;;;;;5015247;28;20439;-83
2024/04/01 04:44:45;;;;;;;1.70;1.00;;;24.60;58.60;;;;;;5017944;28;20435;-84
2024/04/01 04:47:12;;;;;;;1.50;0.80;;;24.60;58.60;;;;;;5017732;28;20801;-84
2024/04/01 04:49:39;;;;;;;1.83;0.90;;;24.60;58.60;;;;;;5017863;28;20550;-84
2024/04/01 04:52:06;;;;;;;1.70;0.73;;;24.60;58.50;;;;;;5018035;28;20447;-85
2024/04/01 04:54:33;;;;;;;1.50;0.80;;;24.60;58.60;;;;;;5019515;28;20457;-85
2024/04/01 04:57:00;;;;;;;1.40;0.70;;;24.60;58.60;;;;;;5020052;28;20548;-85
2024/04/01 04:59:25;;;;;;;1.50;0.70;;;24.60;58.60;;;;;;5018362;28;20442;-85
2024/04/01 05:01:52;;;;;;;2.20;1.07;;;24.60;58.60;;;;;;5017573;28;20458;-85
2024/04/01 05:04:18;;;;;;;1.50;0.73;;;24.60;58.70;;;;;;5019335;28;20200;-84
2024/04/01 05:06:47;;;;;;;1.40;0.70;;;24.60;58.70;;;;;;5017190;28;20509;-84
2024/04/01 05:09:12;;;;;;;1.50;0.80;;;24.60;58.60;;;;;;5017369;28;20196;-84
2024/04/01 05:11:39;;;;;;;1.40;0.70;;;24.60;58.60;;;;;;5017134;28;20439;-84
2024/04/01 05:14:05;;;;;;;1.50;0.70;;;24.70;58.60;;;;;;5000052;28;20222;-84
2024/04/01 05:16:32;;;;;;;1.60;1.00;;;24.70;58.60;;;;;;5017043;28;20466;-84
2024/04/01 05:18:58;;;;;;;1.47;0.80;;;24.70;58.60;;;;;;5017038;28;20227;-83
2024/04/01 05:21:25;;;;;;;1.70;0.80;;;24.70;58.50;;;;;;4999979;28;20435;-84
2024/04/01 05:23:52;;;;;;;1.47;0.77;;;24.70;58.50;;;;;;5017200;28;20623;-83
2024/04/01 05:26:19;;;;;;;1.40;0.73;;;24.70;58.60;;;;;;5017226;28;20447;-84
2024/04/01 05:28:45;;;;;;;1.50;0.77;;;24.70;58.50;;;;;;5017114;28;20439;-83
2024/04/01 05:31:12;;;;;;;1.47;0.80;;;24.70;58.50;;;;;;5017071;28;20471;-84
2024/04/01 05:33:38;;;;;;;1.83;0.70;;;24.70;58.50;;;;;;5016697;28;20192;-84
2024/04/01 05:36:06;;;;;;;1.40;0.80;;;24.70;58.50;;;;;;5016501;28;20481;-84
2024/04/01 05:38:32;;;;;;;1.40;0.70;;;24.80;58.60;;;;;;5016963;28;20196;-83
2024/04/01 05:41:00;;;;;;;1.40;0.60;;;24.80;58.60;;;;;;5016800;28;20442;-84
2024/04/01 05:43:25;;;;;;;4.90;0.70;;;24.80;58.60;;;;;;5016751;28;20196;-84
2024/04/01 05:45:52;;;;;;;1.60;0.80;;;24.80;58.50;;;;;;5017080;28;20442;-84
2024/04/01 05:48:18;;;;;;;1.50;0.80;;;24.80;58.60;;;;;;5016455;28;20651;-84
2024/04/01 05:50:49;;;;;;;1.60;0.90;;;24.80;58.50;;;;;;5016607;28;20443;-84
2024/04/01 05:53:15;;;;;;;1.70;0.93;;;24.80;58.50;;;;;;5016466;28;20219;-84
2024/04/01 05:55:41;;;;;;;1.63;0.80;;;24.80;58.50;;;;;;5016616;28;20435;-84
2024/04/01 05:58:09;;;;;;;1.40;0.80;;;24.80;58.50;;;;;;5016587;28;20231;-84
2024/04/01 06:00:36;;;;;;;2.60;0.93;;;24.80;58.50;;;;;;5029963;28;20443;-84
2024/04/01 06:03:02;;;;;;;1.40;0.70;;;24.80;58.50;;;;;;5041000;28;20494;-85
2024/04/01 06:05:29;;;;;;;1.90;0.83;;;24.80;58.50;;;;;;5031202;28;20443;-84
2024/04/01 06:07:55;;;;;;;1.60;0.90;;;24.80;58.50;;;;;;5016125;28;20461;-83
2024/04/01 06:10:22;;;;;;;1.40;0.70;;;24.80;58.50;;;;;;5016145;28;20451;-84
2024/04/01 06:12:48;;;;;;;1.50;0.80;;;24.80;58.50;;;;;;5022067;28;20196;-82
2024/04/01 06:15:16;;;;;;;1.50;0.80;;;24.90;58.50;;;;;;5027386;28;20467;-84
2024/04/01 06:17:42;;;;;;;1.90;0.80;;;24.90;58.60;;;;;;5025338;28;20483;-84
2024/04/01 06:20:11;;;;;;;1.40;0.70;;;24.80;58.50;;;;;;5023492;28;20443;-84
2024/04/01 06:22:37;;;;;;;1.40;0.70;;;24.90;58.50;;;;;;5015945;28;20254;-83
2024/04/01 06:25:04;;;;;;;1.40;0.70;;;24.80;58.50;;;;;;5015998;28;20436;-84
2024/04/01 06:27:30;;;;;;;1.70;0.70;;;24.90;58.50;;;;;;5015580;28;20544;-83
2024/04/01 06:29:57;;;;;;;1.40;0.70;;;24.90;58.50;;;;;;5015747;28;20440;-83
2024/04/01 06:32:24;;;;;;;1.50;0.73;;;24.90;58.50;;;;;;5015332;28;20212;-83
2024/04/01 06:34:51;;;;;;;1.50;0.80;;;24.90;58.60;;;;;;5015743;28;20439;-84
2024/04/01 06:37:18;;;;;;;1.50;0.80;;;24.90;58.50;;;;;;5015163;28;20506;-84
2024/04/01 06:39:44;;;;;;;1.40;0.70;;;24.90;58.60;;;;;;5015511;28;20965;-83
2024/04/01 06:42:10;;;;;;;1.50;0.77;;;24.90;58.50;;;;;;5015373;28;20443;-84
2024/04/01 06:44:37;;;;;;;1.63;0.80;;;24.80;58.60;;;;;;5015615;28;20439;-84
2024/04/01 06:47:03;;;;;;;1.93;0.80;;;24.80;58.50;;;;;;5015212;28;20208;-84
2024/04/01 06:49:34;;;;;;;2.37;0.70;;;24.80;58.60;;;;;;5015262;28;20474;-84
2024/04/01 06:51:59;;;;;;;1.50;0.70;;;24.80;58.60;;;;;;5014971;28;20439;-84
2024/04/01 06:54:26;;;;;;;1.50;0.80;;;24.80;58.70;;;;;;5015241;28;20808;-84
2024/04/01 06:56:52;;;;;;;2.43;1.10;;;24.80;58.70;;;;;;5015460;28;20219;-84
2024/04/01 06:59:19;;;;;;;1.70;0.90;;;24.80;58.70;;;;;;5015305;28;20450;-84
2024/04/01 07:01:44;;;;;;;1.40;0.73;;;24.70;58.70;;;;;;5015315;28;20219;-86
2024/04/01 07:04:11;;;;;;;1.50;0.90;;;24.70;58.70;;;;;;5014848;28;20439;-84
2024/04/01 07:06:39;;;;;;;1.40;0.67;;;24.70;58.70;;;;;;5015472;28;20666;-84
2024/04/01 07:09:07;;;;;;;1.47;0.80;;;24.70;58.70;;;;;;5015123;28;20450;-84
2024/04/01 07:11:32;;;;;;;3.00;0.70;;;24.70;58.80;;;;;;5014879;28;20431;-84
2024/04/01 07:13:59;;;;;;;2.20;0.90;;;24.70;58.70;;;;;;5015025;28;20497;-84
2024/04/01 07:16:25;;;;;;;1.80;0.80;;;24.70;59.30;;;;;;5014832;28;20200;-84
2024/04/01 07:18:51;;;;;;;1.47;0.90;;;24.70;58.80;;;;;;5014721;28;20450;-84
2024/04/01 07:21:17;;;;;;;1.40;0.70;;;24.70;58.80;;;;;;5014736;28;20211;-84
2024/04/01 07:23:47;;;;;;;1.50;0.73;;;24.70;58.80;;;;;;5014783;28;20439;-83
2024/04/01 07:26:14;;;;;;;1.50;0.70;;;24.70;58.80;;;;;;5014603;28;20203;-84
2024/04/01 07:28:40;;;;;;;1.87;0.80;;;24.70;58.80;;;;;;5014667;28;20935;-84
2024/04/01 07:31:06;;;;;;;1.53;0.80;;;24.70;58.80;;;;;;5014701;28;20462;-86
2024/04/01 07:33:33;;;;;;;2.43;0.80;;;24.70;58.80;;;;;;5014733;28;20450;-84
2024/04/01 07:35:59;;;;;;;1.47;0.80;;;24.80;58.40;;;;;;5005066;28;20511;-84
2024/04/01 07:38:26;;;;;;;2.47;0.90;;;24.80;58.60;;;;;;4994919;28;20494;-83
2024/04/01 07:40:53;;;;;;;1.70;0.80;;;24.80;58.70;;;;;;5008430;28;20444;-83
2024/04/01 07:43:20;;;;;;;2.63;0.80;;;24.80;58.70;;;;;;5008663;28;20502;-84
2024/04/01 07:45:46;;;;;;;3.20;0.80;;;24.80;58.60;;;;;;5013805;28;20458;-85
2024/04/01 07:48:13;;;;;;;1.60;0.70;;;24.90;58.50;;;;;;5030919;28;20442;-83
2024/04/01 07:50:39;;;;;;;1.50;0.80;;;24.90;58.60;;;;;;5026369;28;20192;-94
2024/04/01 07:53:06;;;;;;;1.80;0.80;;;24.90;58.60;;;;;;5019824;28;20447;-89
2024/04/01 07:55:32;;;;;;;1.97;0.90;;;24.90;58.50;;;;;;5014318;28;20554;-82
2024/04/01 07:58:00;;;;;;;1.87;1.30;;;24.90;58.90;;;;;;5013872;28;20573;-81
2024/04/01 08:00:26;;;;;;;2.63;1.20;;;24.90;59.40;;;;;;5013623;28;20196;-83
2024/04/01 08:02:53;;;;;;;1.60;1.00;;;24.90;59.70;;;;;;5014457;28;20445;-83
2024/04/01 08:05:18;;;;;;;1.57;1.00;;;24.90;59.60;;;;;;5012985;28;20199;-84
2024/04/01 08:07:45;;;;;;;1.60;1.07;;;24.90;59.70;;;;;;5013831;28;20435;-83
2024/04/01 08:10:11;;;;;;;1.40;0.80;;;25.00;60.00;;;;;;5013677;28;20558;-83
2024/04/01 08:12:38;;;;;;;1.87;1.00;;;24.90;59.70;;;;;;5013886;28;20449;-82
2024/04/01 08:15:06;;;;;;;1.70;1.00;;;25.00;59.80;;;;;;5013735;28;20236;-83
2024/04/01 08:17:33;;;;;;;1.70;0.93;;;24.90;59.70;;;;;;5013688;28;20498;-82
2024/04/01 08:19:59;;;;;;;1.70;1.00;;;24.90;59.80;;;;;;5014059;28;20795;-82
2024/04/01 08:22:25;;;;;;;1.80;0.90;;;24.90;59.90;;;;;;5013767;28;20450;-83
2024/04/01 08:24:51;;;;;;;2.13;0.97;;;24.90;59.80;;;;;;5012897;28;20208;-83
2024/04/01 08:27:18;;;;;;;1.60;0.87;;;24.90;59.80;;;;;;5013055;28;20462;-82
2024/04/01 08:29:44;;;;;;;1.50;1.00;;;24.90;59.80;;;;;;5012991;28;20682;-83
2024/04/01 08:32:12;;;;;;;2.30;1.10;;;24.90;59.80;;;;;;5012734;28;20503;-83
2024/04/01 08:34:38;;;;;;;1.90;0.90;;;24.90;59.80;;;;;;5013251;28;20290;-82
2024/04/01 08:37:05;;;;;;;2.00;0.93;;;24.90;59.80;;;;;;5013653;28;20574;-83
2024/04/01 08:39:32;;;;;;;2.90;0.90;;;24.90;59.80;;;;;;5016789;28;20208;-86
2024/04/01 08:42:04;;;;;;;1.60;0.90;;;24.90;59.80;;;;;;5021654;28;20446;-87
2024/04/01 08:44:34;;;;;;;2.13;1.00;;;24.90;59.80;;;;;;5017155;28;20797;-87
2024/04/01 08:50:15;;;;;;;1.70;0.80;;;24.90;60.00;;;;;;4963644;28;20450;-83
2024/04/01 08:52:49;;;;;;;3.00;1.03;;;24.90;60.00;;;;;;4976034;28;20442;-81
2024/04/01 08:55:16;;;;;;;1.50;0.80;;;24.90;59.70;;;;;;5010847;28;20495;-84
2024/04/01 08:57:42;;;;;;;2.20;0.90;;;24.90;59.90;;;;;;5013193;28;20495;-83
2024/04/01 09:00:11;;;;;;;1.90;0.90;;;25.00;59.80;;;;;;5013033;28;20785;-80
2024/04/01 09:02:37;;;;;;;2.57;1.00;;;25.00;59.80;;;;;;5012853;28;20447;-84
2024/04/01 09:05:04;;;;;;;1.97;1.10;;;25.00;59.80;;;;;;4996257;28;20919;-85
2024/04/01 09:07:31;;;;;;;1.70;0.90;;;25.00;60.00;;;;;;5013731;28;20450;-84
2024/04/01 09:09:58;;;;;;;3.60;0.90;;;25.00;60.00;;;;;;5027360;28;20506;-84
2024/04/01 09:12:24;;;;;;;2.80;1.07;;;25.00;60.20;;;;;;5036565;28;20510;-90
2024/04/01 09:14:51;;;;;;;2.90;1.00;;;25.00;60.00;;;;;;5027066;28;20458;-90
2024/04/01 09:17:24;;;;;;;1.90;0.90;;;25.00;59.20;;;;;;5014718;28;20470;-87
2024/04/01 18:35:06;;;;;;;2.20;1.20;;;24.90;59.60;;;;;;5015163;28;20497;-85
2024/04/01 18:37:33;;;;;;;1.43;0.83;;;24.90;59.00;;;;;;5036126;28;20442;-85
2024/04/01 18:40:00;;;;;;;2.17;1.03;;;24.90;59.10;;;;;;5034562;28;20440;-86
2024/04/01 18:42:28;;;;;;;3.20;0.97;;;24.90;59.10;;;;;;5017743;28;20443;-84
2024/04/01 18:44:55;;;;;;;1.80;1.00;;;24.90;59.00;;;;;;5016099;28;20451;-84
2024/04/01 18:47:23;;;;;;;1.50;0.90;;;25.00;59.20;;;;;;5016279;28;20458;-90
2024/04/01 18:49:49;;;;;;;2.43;1.10;;;25.00;59.10;;;;;;5018367;28;20461;-87
2024/04/01 18:52:28;;;;;;;2.90;1.00;;;24.90;59.10;;;;;;5016694;28;20459;-83
2024/04/01 18:54:54;;;;;;;1.90;1.10;;;24.90;59.20;;;;;;5015792;28;20443;-86
2024/04/01 18:57:22;;;;;;;6.53;1.10;;;24.90;59.20;;;;;;5016263;28;20471;-84
2024/04/01 18:59:48;;;;;;;1.50;1.00;;;24.90;59.10;;;;;;5014486;28;20459;-86
2024/04/01 19:02:14;;;;;;;2.07;0.80;;;24.90;59.10;;;;;;5016002;28;20453;-88
2024/04/01 19:04:40;;;;;;;1.50;0.83;;;24.90;59.20;;;;;;5015854;28;20210;-85
2024/04/01 19:07:07;;;;;;;1.90;1.00;;;24.90;59.10;;;;;;5015334;28;20534;-86
2024/04/01 19:09:35;;;;;;;1.53;0.80;;;24.90;59.10;;;;;;4997763;28;20544;-83
2024/04/01 19:12:01;;;;;;;1.77;0.80;;;24.90;59.20;;;;;;5006269;28;20436;-86
2024/04/01 19:14:27;;;;;;;1.63;1.00;;;24.90;59.20;;;;;;5015589;28;20810;-84
2024/04/01 19:16:55;;;;;;;1.80;0.97;;;24.90;59.20;;;;;;5014504;28;20443;-82
2024/04/01 19:19:21;;;;;;;3.50;1.20;;;24.90;59.20;;;;;;5014602;28;20220;-84
2024/04/01 19:21:47;;;;;;;2.67;0.90;;;24.90;59.10;;;;;;5014531;28;20502;-83
2024/04/01 19:24:13;;;;;;;2.60;1.27;;;24.90;59.10;;;;;;5014449;28;20200;-83
2024/04/01 19:26:41;;;;;;;1.60;0.97;;;24.90;59.10;;;;;;5014560;28;20804;-84
2024/04/01 19:29:08;;;;;;;2.57;1.20;;;24.90;59.10;;;;;;5014366;28;20208;-83
2024/04/01 19:31:34;;;;;;;1.80;1.20;;;24.90;59.10;;;;;;5009611;28;20891;-84
2024/04/01 19:34:00;;;;;;;1.60;0.90;;;25.00;59.10;;;;;;5014483;28;20473;-85
2024/04/01 19:36:28;;;;;;;1.50;1.00;;;25.00;59.10;;;;;;5014445;28;20439;-85
2024/04/01 19:38:54;;;;;;;1.50;0.83;;;25.00;59.10;;;;;;5014174;28;20228;-85
2024/04/01 19:41:21;;;;;;;2.17;1.00;;;25.00;59.10;;;;;;5014475;28;20447;-86
2024/04/01 19:43:51;;;;;;;1.50;0.90;;;25.00;59.10;;;;;;5015658;28;20454;-86
2024/04/01 19:46:17;;;;;;;1.70;1.00;;;25.00;59.10;;;;;;5018057;28;20451;-83
2024/04/01 19:48:44;;;;;;;1.60;1.03;;;24.90;59.10;;;;;;5014464;28;20446;-83
2024/04/01 19:51:11;;;;;;;1.60;0.90;;;24.90;59.10;;;;;;5014307;28;20459;-85
2024/04/01 19:53:39;;;;;;;1.40;0.80;;;24.90;59.20;;;;;;5017456;28;20554;-87
2024/04/01 19:56:08;;;;;;;1.50;0.93;;;24.90;59.80;;;;;;5020278;28;20474;-86
2024/04/01 19:58:36;;;;;;;1.60;0.83;;;24.90;59.20;;;;;;5015673;28;20493;-85
2024/04/01 20:01:05;;;;;;;1.73;0.90;;;24.90;59.20;;;;;;5014700;28;20535;-86
2024/04/01 20:03:39;;;;;;;2.00;1.00;;;24.80;59.20;;;;;;5015026;28;20483;-86
2024/04/01 20:06:06;;;;;;;1.50;0.90;;;24.80;59.10;;;;;;5014997;28;20529;-86
2024/04/01 20:08:33;;;;;;;1.50;0.90;;;24.80;59.20;;;;;;5019314;28;20486;-85
2024/04/01 20:11:02;;;;;;;1.60;1.00;;;24.80;59.10;;;;;;5022148;28;20469;-86
2024/04/01 20:13:30;;;;;;;1.60;1.10;;;24.80;59.20;;;;;;5017694;28;20516;-89
2024/04/01 20:15:58;;;;;;;1.40;0.90;;;24.80;59.20;;;;;;5019425;28;20440;-86
2024/04/01 20:18:30;;;;;;;1.60;0.80;;;24.80;59.30;;;;;;5019273;28;20471;-86
2024/04/01 20:20:58;;;;;;;2.83;1.20;;;24.80;59.30;;;;;;5016662;28;20454;-85
2024/04/01 20:23:24;;;;;;;1.77;0.90;;;24.80;59.30;;;;;;5016841;28;20447;-85
2024/04/01 20:25:58;;;;;;;1.60;0.90;;;24.80;59.40;;;;;;5015410;28;20451;-84
2024/04/01 20:28:24;;;;;;;1.50;0.90;;;24.80;59.40;;;;;;5016340;28;20204;-86
2024/04/01 20:30:53;;;;;;;2.47;0.83;;;24.80;59.30;;;;;;4998109;28;20513;-85
2024/04/01 20:33:23;;;;;;;4.23;1.20;;;24.80;59.20;;;;;;5005248;28;20486;-87
2024/04/01 20:35:51;;;;;;;1.70;1.00;;;24.80;59.30;;;;;;5043147;23;20520;-88
2024/04/01 20:38:17;;;;;;;1.50;0.90;;;24.80;59.20;;;;;;5058144;28;20489;-88
2024/04/01 20:40:44;;;;;;;1.50;0.93;;;24.80;59.40;;;;;;5056893;28;20524;-89
2024/04/01 20:43:12;;;;;;;1.60;1.00;;;24.80;59.40;;;;;;5057391;28;20444;-87
2024/04/01 20:45:39;;;;;;;1.80;1.00;;;24.80;59.30;;;;;;5060269;28;20475;-86
2024/04/01 20:48:14;;;;;;;1.92;1.17;;;24.80;59.40;;;;;;5056522;28;20431;-85
2024/04/01 20:50:41;;;;;;;2.63;0.83;;;25.10;59.60;;;;;;5056789;28;20242;-87
2024/04/01 20:53:20;;;;;;;2.00;0.87;;;24.90;59.50;;;;;;5058591;28;20445;-93
2024/04/01 20:55:47;;;;;;;2.13;1.03;;;24.90;59.50;;;;;;5047707;28;20445;-86
2024/04/01 20:58:20;;;;;;;1.87;0.90;;;24.90;60.10;;;;;;5058602;28;20919;-87
2024/04/01 21:00:47;;;;;;;1.70;1.00;;;25.00;59.50;;;;;;5057026;28;20485;-87
2024/04/01 21:03:28;;;;;;;2.80;1.10;;;24.90;59.30;;;;;;5066093;28;20431;-87
2024/04/01 21:05:55;;;;;;;1.97;0.80;;;24.90;59.30;;;;;;5063666;28;20483;-86
2024/04/01 21:08:22;;;;;;;1.83;0.90;;;24.90;59.30;;;;;;5061491;28;20552;-86
2024/04/01 21:10:49;;;;;;;1.97;0.80;;;24.80;59.30;;;;;;5064263;28;20437;-86
2024/04/01 21:13:15;;;;;;;3.20;0.90;;;24.80;59.10;;;;;;5054836;28;20433;-86
2024/04/01 21:15:42;;;;;;;1.63;0.90;;;24.80;59.20;;;;;;5047259;28;20530;-87
2024/04/01 21:18:07;;;;;;;1.77;1.33;;;24.80;59.20;;;;;;5033989;28;20215;-87
2024/04/01 21:20:35;;;;;;;2.00;0.90;;;24.90;59.40;;;;;;5047424;28;20455;-87
2024/04/01 21:23:00;;;;;;;1.60;0.80;;;24.70;59.10;;;;;;5053934;28;20244;-87
2024/04/01 21:25:31;;;;;;;2.50;1.00;;;24.70;59.20;;;;;;5059039;28;20437;-87
2024/04/01 21:27:57;;;;;;;1.87;1.13;;;24.70;59.30;;;;;;5062109;28;20199;-87
2024/04/01 21:30:24;;;;;;;1.70;1.00;;;24.70;59.20;;;;;;5061319;28;20518;-85
2024/04/01 21:32:49;;;;;;;1.70;0.90;;;24.70;59.30;;;;;;5057517;28;20191;-86
2024/04/01 21:35:16;;;;;;;1.90;1.10;;;24.60;59.20;;;;;;5039819;28;20464;-86
2024/04/01 21:37:43;;;;;;;1.60;1.00;;;24.60;59.30;;;;;;5058746;28;20198;-93
2024/04/01 21:40:13;;;;;;;1.77;0.90;;;24.60;59.20;;;;;;5050205;28;20489;-85
2024/04/01 21:42:41;;;;;;;1.67;1.00;;;24.50;59.10;;;;;;5048105;28;20423;-86
2024/04/01 21:45:09;;;;;;;1.93;1.27;;;24.60;59.30;;;;;;5061020;28;20421;-84
2024/04/01 21:47:35;;;;;;;2.00;0.90;;;24.50;59.10;;;;;;5058964;28;20426;-86
2024/04/01 21:50:04;;;;;;;1.97;1.00;;;24.50;59.10;;;;;;5044060;28;20485;-86
2024/04/01 21:52:30;;;;;;;1.60;0.90;;;24.50;59.10;;;;;;5041710;28;20195;-87
2024/04/01 21:54:57;;;;;;;1.70;1.00;;;24.50;59.20;;;;;;5040392;28;20796;-85
2024/04/01 21:57:23;;;;;;;3.50;0.90;;;24.50;59.20;;;;;;5039582;28;20199;-86
2024/04/01 21:59:51;;;;;;;2.20;0.90;;;24.50;59.10;;;;;;5038642;28;20839;-86
2024/04/01 22:02:17;;;;;;;2.00;1.00;;;24.40;59.20;;;;;;5039393;28;20195;-86
2024/04/01 22:04:44;;;;;;;1.53;0.87;;;24.40;59.10;;;;;;5041648;28;20465;-85